SEASEATTLE-TACOMA INTL
METARs for nearby airports:
N 0 432' KSEA 182253Z 34026G36KT 10SM FEW014 FEW026 SCT080 02/M04 A2975
NE 4 32' KRNT 182253Z 32023G33KT 10SM CLR 03/M02 A2976
N 4 21' KBFI 182253Z 33015G29KT 10SM FEW031 03/M04 A2977
SW 15 294' KTIW 182253Z 36020G27KT 10SM SCT026 SCT050 01/M04 A2975
W 18 443' KPWT 182256Z 03017G26KT 10SM CLR 02/M07 A2975
S 19 322' KTCM 182258Z 02020G30KT 10SM BKN031 BKN045 02/M01 A2975
S 20 537' KPLU 182315Z 01007G14KT 310V050 9SM FEW014 SCT028 BKN036 01/M00 A2974
SW 24 300' KGRF 182309Z 33012G20KT 10SM SCT028 SCT065 02/M01 A2975
N 27 607' KPAE 182253Z 30011G19KT 10SM CLR 02/M03 A2976
W 36 272' KSHN 182253Z 02010G16KT 10SM CLR 05/M06 A2971
SW 37 207' KOLM 182254Z 03012G20KT 10SM SCT035 SCT060 03/M02 A2975
N 43 141' KAWO 182256Z 01010KT 10SM CLR 02/M05 A2979
SW 53 177' KCLS 182315Z 03014G20KT 10SM BKN019 03/00 A2975
N 55 47' KNUW 182256Z 01019G28KT 10SM FEW030 SCT080 03/M09 A2988
NW 60 13' KNOW 182315Z 04015G20KT 10SM SCT055 OVC080 02/M08 A2994
N 61 145' KBVS 182315Z 01010KT 10SM CLR 03/M08 A2984
NW 62 291' KCLM 182253Z 07011G16KT 10SM SCT055 OVC075 01/M09 A2992
NW 70 112' KFHR 182253Z 01024G35KT 10SM CLR 01/M12 A2990
SW 72 17' KHQM 182253Z 05009KT 10SM CLR 06/M01 A2973
E 76 1763' KELN 182253Z 08018G24KT 10SM SCT060 01/M08 A2967
N 79 34' KORS 182315Z 02011G24KT 340V060 10SM CLR 01/M11 A2991
N 81 170' KBLI 182253Z 02026G39KT 10SM CLR 00/M12 A2987
S 83 20' KKLS 182256Z 00000KT 6SM -RA BR FEW007 OVC016 02/01 A2971
NW 84 64' CYYJ 182300Z 01015G23KT 30SM FEW030 FEW045 FEW070 FEW250 02/M09 A2991
E 85 1248' KEAT 182255Z 03020G26KT 10SM OVC050 M02/M09 A2978
SE 89 1098' KYKM 182314Z 04016G23KT 5SM -SN OVC035 01/M06 A2972
W 95 193' KUIL 182253Z 06018G29KT 10SM CLR 02/M07 A2982
TAFs for nearby airports:
N 0 432' KSEA TAF KSEA 182320Z 1900/2006 34025G35KT P6SM SCT025
  FM190300 36017G27KT P6SM SKC
  FM190700 04012G20KT P6SM SKC
  FM191200 04006KT P6SM SKC
N 4 21' KBFI TAF KBFI 182320Z 1900/1924 34020G30KT P6SM FEW030
  FM190300 36015G25KT P6SM SKC
  FM190700 04012G20KT P6SM SKC
  FM191200 04006KT P6SM SKC
W 18 443' KPWT TAF KPWT 182320Z 1900/1924 03020G30KT P6SM FEW025
  FM190300 03015G25KT P6SM SKC
  FM190700 03012G20KT P6SM SKC
  FM191200 03006KT P6SM SKC
S 19 322' KTCM TAF
  AMD KTCM 182234Z 1822/2003 01012G20KT 4800 -SHSN OVC010 610109 QNH2970INS
  TEMPO 1822/1823 01009KT OVC008 610089
  BECMG 1823/1824 01015G25KT 9999 NSW BKN005 620059 QNH2980INS
  TEMPO 1824/1904 BKN008
  BECMG 1904/1905 02012G18KT 9999 SCT030 BKN040 620409 QNH2994INS
  BECMG 1911/1912 03012KT 9999 SCT030 BKN050 620509 QNH3000INS TX03/1921Z TNM06/1913Z
SW 24 300' KGRF TAF
  AMD KGRF 182230Z 1822/2003 02012G18KT 4800 -SHSN OVC010 610109 QNH2970INS
  TEMPO 1822/1823 01009KT 2000 -SHSN OVC015 610159
  BECMG 1823/1824 01015G25KT 9999 NSW BKN010 620109 QNH2980INS
  TEMPO 1824/1904 BKN015 620159
  BECMG 1904/1905 02012G18KT 9999 BKN015 620409 QNH2994INS
  BECMG 1911/1912 03012KT 9999 SCT030 BKN050 620509 QNH3000INS TX03/1921Z TNM06/1913Z
N 27 607' KPAE TAF KPAE 182320Z 1900/1924 32015G25KT P6SM SKC
  FM190600 04012KT P6SM SKC
  FM191800 04006KT P6SM SKC
SW 37 207' KOLM TAF KOLM 182320Z 1900/1924 07014G22KT P6SM BKN050
  FM190500 05012KT P6SM SCT030
  FM190800 05008KT P6SM SKC
N 55 47' KNUW TAF TAF KNUW 1823/1923 35020G30KT 9999 VCSH FEW035 SCT100 BKN200 520005 QNH2975INS
  TEMPO 1822/1904 6000 -SHRA BR BKN045
  FM190700 35015G20KT 9999 VCSH FEW100 SCT200 510005 QNH2995INS
  FM191800 35011KT 9000 -SHRA BR SCT085 BKN035 500000 QNH3015INS TM06/1914Z T03/1922Z FS30102
NW 62 291' KCLM TAF KCLM 182320Z 1900/1924 07012G20KT P6SM BKN050
  FM190600 04010KT P6SM SCT050
  FM191800 VRB03KT P6SM SKC
SW 72 17' KHQM TAF KHQM 182320Z 1900/1924 04012KT P6SM SCT020
  FM190600 06012KT P6SM SKC
N 81 170' KBLI TAF KBLI 182320Z 1900/1924 03027G37KT P6SM SKC
  FM190400 03018G28KT P6SM SCT050
  FM190900 03015G25KT P6SM SKC
  FM191800 03012KT P6SM SKC
E 85 1248' KEAT KEAT 182137Z 1822/1918 03019G27KT P6SM VCSH BKN060
  FM190400 02015KT P6SM BKN060
  FM191000 01010KT P6SM SKC
SE 89 1098' KYKM KYKM 181740Z 1818/1918 34011G16KT P6SM SCT060 BKN120
  FM190300 32011G16KT P6SM VCSH OVC050
  FM190800 31010KT P6SM SCT060 SCT100
Area forecast:
000
FAUS46 KKCI 101945
FA6W  
SFOC FA 101945
SYNOPSIS AND VFR CLDS/WX
SYNOPSIS VALID UNTIL 111400
CLDS/WX VALID UNTIL 110800...OTLK VALID 110800-111400
WA OR CA AND CSTL WTRS
.
SEE AIRMET SIERRA FOR IFR CONDS AND MTN OBSCN.
TS IMPLY SEV OR GTR TURB SEV ICE LLWS AND IFR CONDS.
NON MSL HGTS DENOTED BY AGL OR CIG.
.
SYNOPSIS...UPR LVL TROF WAS LOCATED NR 130W. MOIST SWLY FLOW
EXTDS FROM PAC NW EWD INTO NRN ROCKIES. HIGH PRES RIDGE WAS OVR
MUCH OF THE REST OF THE AREA. BY 14Z...UPR LVL TROF WILL EXTD
FROM WA-OR SWD INTO CA.  ..STREIB..
.
WA CASCDS WWD
CSTL SXNS
CSTLN-INLAND...SCT-BKN025 BKN035-050 TOPS 120-140. ISOL -SHRA.
   OTLK...MVFR CIGS SHRA BR.
PUGET SOUND-INTR VLY...SCT-BKN020 BKN-OVC035-050 TOPS 160 BKN CI.
   WDLY SCT -SHRA. OTLK...MVFR CIGS SHRA.
CASCDS...BKN-OVC050-070 TOPS FL180. BKN CI ABV. WDLY SCT -SHRA.
   OTLK...MVFR CIGS SHRA.
.
WA E OF CASCDS
CNTRL WA...SCT140 OVC CI. BECMG 2302 SCT080 BKN120 LYRD FL240.
   OTLK...VFR.
ERN WA...SCT-BKN140-160 LYRD FL240. BECMG 0508 BKN080 OVC120
   LYRD FL240 ISOL -SHRA DVLPG. OTLK...VFR.
.
OR CASCDS WWD
CSTL SXNS
CSTLN-INLAND...SCT-BKN020 BKN-OVC035-050 TOPS FL180. WDLY SCT
   -SHRA. OTLK...MVFR CIGS SHRA.
WILLAMETTE VLY/SWRN INTR...SCT-BKN020 BKN-OVC035-050 TOPS FL180.
   WDLY SCT -SHRA. OTLK...MVFR CIGS SHRA.
CASCDS...SCT-BKN060 BKN-OVC080-100 TOPS FL180 ISOL -SHRA.
   OTLK...MVFR CIGS SHRA.
.
OR E OF CASCDS
CNTRL...SCT100-120 BKN150 LYRD FL240. OTLK...VFR.
ERN...SCT130-150 BKN CI. BECMG 0205 OVC120-140 LYRD FL240.
   OTLK...VFR.
.
NRN CA...STS-SAC-TVL LN NWD
CSTL SXNS...
   FOT NWD...SCT025 BKN CI ABV. BECMG 0205 SCT020 OVC050 TOPS
      160. ISOL -SHRA. OTLK...IFR CIGS.
   S OF FOT...SCT-BKN010 TOPS 030-040. OTLK...IFR CIGS.
REST OF AREA...SKC OCNL SCT CI. OCNL VYS 3-5SM FU HZ.
   OTLK...VFR.
SAC VLY...
   NRN AND CNTRL SXNS...SKC. OTLK...VFR.
   SRN SXNS...SKC. OCNL VIS 3-5SM FU HZ. OTLK...MVFR FU HZ.
SHASTA-SISKIYOUS-NERN CA...
NRN SIERRAS...SKC OCNL SCT CI. WINDS SLY G25KT. OTLK...VFR WIND.
.
CNTRL CA
CSTL SXNS...
   CSTLN...SKC OCNL SCT010. BECMG 0508 OCNL CIGS BKN-SCT010 TOPS
      020-030. OTLK...IFR CIGS.
   INLAND...SKC. OTLK...VFR BECMG 1114 IFR CIGS BR.
SAN JOAQUIN VLY...SKC. OTLK...VFR.
SRN SIERRAS..SKC. OTLK...VFR.
.
SRN CA..VBG-NID-60NNW BIH LN SWD
CSTL SXNS...
   CSTLN...
      EXTRM SRN SXNS...SKC. BECMG 0205 SCT010. BECMG 0508 CIGS
         BKN-OVC010 TOPS 030. OTLK...IFR CIGS.
      REST OF AREA...SKC. OTLK...VFR BECMG 0811 IFR CIGS BR.
   INLAND...SKC OCNL FEW CI. OTLK...VFR.
INTR MTNS-MOJAVE-SRN DESERTS...SKC OCNL FEW CI. OTLK...VFR.
.
CSTL WTRS
WA...SCT-BKN035-050 TOPS 100-120. ISOL -SHRA. OTLK...VFR.
OR...
NWRN HLF...SCT-BKN035-050 TOPS 100-120. ISOL -SHRA. OTLK...VFR.
SERN HLF...SCT-BKN025 BKN035-050 TOPS FL180 BKN CI ABV. WDLY SCT
   -SHRA. OTLK...MVFR CIGS SHRA.
CA...
NRN CA...
   FOT NWD...SCT025 BKN CI ABV. BECMG 0205 SCT020 OVC050 TOPS
      160. ISOL -SHRA. OTLK...IFR CIGS.
   S OF FOT...SCT-BKN010 TOPS 030-040. OTLK...IFR CIGS.
CNTRL CA...SCT-BKN010 TOPS 030-040. OTLK...IFR CIGS.
SRN CA...
   OUTER CSTL WTRS...CIGS BKN010-020 TOPS 030-050.
      OTLK...IFR CIGS.
   ADJ CSTL WTRS...SKC. OCNL AGL SCT010. OTLK...VFR BECMG 0811
      IFR CIGS BR.
.
THE AREA FORECAST WILL TERMINATE AT 2359Z ON 10 OCTOBER 2017. IN
PLACE OF THE AREA FORECAST...PLEASE SEE THE GRAPHICAL FORECAST AT
WWW.AVIATIONWEATHER.GOV/GFA. GRAPHICAL AND TEXT AIRMETS WILL
CONTINUE AS REGULARLY SCHEDULED.
....

Shortcut to this page: http://wxbay.com.

Data may contain errors.